Terminal Aerodrome Forecast
Issued by NWS

Home | Current Version | Previous Version | Text Only | Print | Product List | Glossary On
Versions: 1 2 3 4 5 6 7 8 9 10 11 12 13 14 15 16 17 18 19 20 21 22 23 24 25 26 27 28 29 30 31 32 33 34
664
FTUS41 KOKX 241133
TAFGON
TAF
KGON 241133Z 2412/2512 04006KT P6SM VCSH BKN020
     FM241600 VRB05KT P6SM VCSH BKN030
     FM242100 18005KT P6SM VCSH FEW030 BKN060
     FM250100 VRB04KT P6SM SCT100=

USA.gov is the U.S. government's official web portal to all federal, state and local government web resources and services.